Disclaimer

Please do not use the information listed here in-flight or in-navigation, as they are not provided to us by the airports but are provided by volunteers, so they might be outdated.

Search


Regions


Airport information page

Radio informations:
Tower (TWR) - 118.3 MHz

Airport informations:
Latitude: 69° 41' 00.00" N
Longitude: 018° 55' 08.11" E
Elevation: 31 feet - 9 meters
Operating hours: 24 hour operations
Operating agency: Civil government, landing fees and diplomatic clearance may be required
Timezone: UTC+1(+2DT) - Last Sunday in March to last Sunday in October
Fuel: Jet A1+, Jet A1 with icing inhibitor.

100/130 MIL Spec, low lead, aviation gasoline (BLUE)

Runway information:
01/19 - 7848 x 148 feet< - >2392 x 45 meters

Recent METARs:
ENTC 170650Z 28016KT 8000 -SHRA FEW006 SCT024 BKN042 06/04 Q1024 TEMPO 29025G40KT BKN014 RMK WIND 2600FT 31042G52KT
ENTC 170720Z 29017KT 4800 SHRA FEW006 BKN024 06/04 Q1025 TEMPO 9999 29025G40KT BKN014 RMK WIND 2600FT 31038KT
ENTC 170750Z 32022KT 7000 SHRA FEW005 SCT014 BKN023 06/03 Q1026 TEMPO -SHRA BKN014 RMK WIND 2600FT 32043G55KT

Airport on the map: